sensor_id;sensor_type;location;lat;lon;timestamp;P1;durP1;ratioP1;P2;durP2;ratioP2
15812;SDS011;8007;51.404;6.304;2022-07-30T00:01:57;10.47;;;9.47;;
15812;SDS011;8007;51.404;6.304;2022-07-30T00:04:00;11.60;;;10.40;;
15812;SDS011;8007;51.404;6.304;2022-07-30T00:06:02;10.70;;;9.60;;
15812;SDS011;8007;51.404;6.304;2022-07-30T00:08:04;14.23;;;10.43;;
15812;SDS011;8007;51.404;6.304;2022-07-30T00:10:07;15.97;;;11.00;;
15812;SDS011;8007;51.404;6.304;2022-07-30T00:12:10;11.27;;;10.20;;
15812;SDS011;8007;51.404;6.304;2022-07-30T00:14:14;13.57;;;11.57;;
15812;SDS011;8007;51.404;6.304;2022-07-30T00:16:16;17.03;;;10.57;;
15812;SDS011;8007;51.404;6.304;2022-07-30T00:18:18;12.40;;;11.00;;
15812;SDS011;8007;51.404;6.304;2022-07-30T00:20:20;16.80;;;11.90;;
15812;SDS011;8007;51.404;6.304;2022-07-30T00:22:23;12.33;;;11.00;;
15812;SDS011;8007;51.404;6.304;2022-07-30T00:24:28;12.97;;;11.63;;
15812;SDS011;8007;51.404;6.304;2022-07-30T00:26:30;13.03;;;11.70;;
15812;SDS011;8007;51.404;6.304;2022-07-30T00:28:32;13.90;;;11.80;;
15812;SDS011;8007;51.404;6.304;2022-07-30T00:30:36;15.20;;;11.60;;
15812;SDS011;8007;51.404;6.304;2022-07-30T00:32:39;13.70;;;11.07;;
15812;SDS011;8007;51.404;6.304;2022-07-30T00:34:41;13.63;;;11.53;;
15812;SDS011;8007;51.404;6.304;2022-07-30T00:36:43;14.47;;;11.90;;
15812;SDS011;8007;51.404;6.304;2022-07-30T00:38:46;13.30;;;12.00;;
15812;SDS011;8007;51.404;6.304;2022-07-30T00:40:48;13.20;;;11.80;;
15812;SDS011;8007;51.404;6.304;2022-07-30T00:42:50;17.03;;;12.27;;
15812;SDS011;8007;51.404;6.304;2022-07-30T00:44:52;16.60;;;12.20;;
15812;SDS011;8007;51.404;6.304;2022-07-30T00:46:56;12.70;;;11.40;;
15812;SDS011;8007;51.404;6.304;2022-07-30T00:48:58;17.03;;;11.50;;
15812;SDS011;8007;51.404;6.304;2022-07-30T00:51:00;14.07;;;11.63;;
15812;SDS011;8007;51.404;6.304;2022-07-30T00:53:02;13.80;;;12.30;;
15812;SDS011;8007;51.404;6.304;2022-07-30T00:55:05;18.13;;;12.37;;
15812;SDS011;8007;51.404;6.304;2022-07-30T00:57:07;14.20;;;11.40;;
15812;SDS011;8007;51.404;6.304;2022-07-30T00:59:10;18.93;;;12.30;;
15812;SDS011;8007;51.404;6.304;2022-07-30T01:01:12;14.83;;;11.27;;
15812;SDS011;8007;51.404;6.304;2022-07-30T01:03:15;16.47;;;11.60;;
15812;SDS011;8007;51.404;6.304;2022-07-30T01:05:18;14.53;;;12.23;;
15812;SDS011;8007;51.404;6.304;2022-07-30T01:07:20;14.87;;;12.17;;
15812;SDS011;8007;51.404;6.304;2022-07-30T01:09:22;15.23;;;11.93;;
15812;SDS011;8007;51.404;6.304;2022-07-30T01:11:27;15.63;;;10.87;;
15812;SDS011;8007;51.404;6.304;2022-07-30T01:13:31;18.07;;;11.53;;
15812;SDS011;8007;51.404;6.304;2022-07-30T01:15:33;17.10;;;12.03;;
15812;SDS011;8007;51.404;6.304;2022-07-30T01:17:36;14.30;;;11.97;;
15812;SDS011;8007;51.404;6.304;2022-07-30T01:19:40;14.43;;;10.80;;
15812;SDS011;8007;51.404;6.304;2022-07-30T01:22:02;14.90;;;11.93;;
15812;SDS011;8007;51.404;6.304;2022-07-30T01:24:10;20.07;;;12.87;;
15812;SDS011;8007;51.404;6.304;2022-07-30T01:26:17;15.13;;;11.67;;
15812;SDS011;8007;51.404;6.304;2022-07-30T01:28:21;13.67;;;12.00;;
15812;SDS011;8007;51.404;6.304;2022-07-30T01:30:24;15.17;;;12.40;;
15812;SDS011;8007;51.404;6.304;2022-07-30T01:32:27;15.10;;;12.07;;
15812;SDS011;8007;51.404;6.304;2022-07-30T01:34:31;16.07;;;12.13;;
15812;SDS011;8007;51.404;6.304;2022-07-30T01:36:34;16.17;;;12.40;;
15812;SDS011;8007;51.404;6.304;2022-07-30T01:38:37;17.40;;;12.27;;
15812;SDS011;8007;51.404;6.304;2022-07-30T01:40:41;17.40;;;12.57;;
15812;SDS011;8007;51.404;6.304;2022-07-30T01:42:45;15.53;;;13.37;;
15812;SDS011;8007;51.404;6.304;2022-07-30T01:44:49;16.00;;;12.70;;
15812;SDS011;8007;51.404;6.304;2022-07-30T01:46:52;17.00;;;12.37;;
15812;SDS011;8007;51.404;6.304;2022-07-30T01:48:55;14.00;;;12.13;;
15812;SDS011;8007;51.404;6.304;2022-07-30T01:50:59;16.93;;;12.97;;
15812;SDS011;8007;51.404;6.304;2022-07-30T01:53:02;15.30;;;12.73;;
15812;SDS011;8007;51.404;6.304;2022-07-30T01:55:05;18.77;;;13.70;;
15812;SDS011;8007;51.404;6.304;2022-07-30T01:57:09;16.90;;;12.63;;
15812;SDS011;8007;51.404;6.304;2022-07-30T01:59:13;17.20;;;13.73;;
15812;SDS011;8007;51.404;6.304;2022-07-30T02:01:17;15.23;;;13.37;;
15812;SDS011;8007;51.404;6.304;2022-07-30T02:03:19;23.50;;;14.20;;
15812;SDS011;8007;51.404;6.304;2022-07-30T02:05:21;17.07;;;13.43;;
15812;SDS011;8007;51.404;6.304;2022-07-30T02:07:26;17.37;;;13.37;;
15812;SDS011;8007;51.404;6.304;2022-07-30T02:09:30;16.83;;;13.03;;
15812;SDS011;8007;51.404;6.304;2022-07-30T02:11:35;15.90;;;13.47;;
15812;SDS011;8007;51.404;6.304;2022-07-30T02:13:56;15.97;;;13.87;;
15812;SDS011;8007;51.404;6.304;2022-07-30T02:16:01;15.63;;;13.90;;
15812;SDS011;8007;51.404;6.304;2022-07-30T02:18:07;17.60;;;14.27;;
15812;SDS011;8007;51.404;6.304;2022-07-30T02:20:11;21.73;;;14.77;;
15812;SDS011;8007;51.404;6.304;2022-07-30T02:22:14;19.53;;;15.10;;
15812;SDS011;8007;51.404;6.304;2022-07-30T02:24:19;17.63;;;15.37;;
15812;SDS011;8007;51.404;6.304;2022-07-30T02:26:22;20.00;;;14.67;;
15812;SDS011;8007;51.404;6.304;2022-07-30T02:28:25;18.87;;;14.73;;
15812;SDS011;8007;51.404;6.304;2022-07-30T02:30:29;17.77;;;14.70;;
15812;SDS011;8007;51.404;6.304;2022-07-30T02:32:34;19.20;;;14.97;;
15812;SDS011;8007;51.404;6.304;2022-07-30T02:34:37;19.53;;;14.83;;
15812;SDS011;8007;51.404;6.304;2022-07-30T02:36:40;20.93;;;15.23;;
15812;SDS011;8007;51.404;6.304;2022-07-30T02:38:43;21.73;;;16.20;;
15812;SDS011;8007;51.404;6.304;2022-07-30T02:40:47;26.77;;;15.17;;
15812;SDS011;8007;51.404;6.304;2022-07-30T02:42:50;23.83;;;16.50;;
15812;SDS011;8007;51.404;6.304;2022-07-30T02:44:53;20.83;;;15.57;;
15812;SDS011;8007;51.404;6.304;2022-07-30T02:46:56;19.10;;;16.40;;
15812;SDS011;8007;51.404;6.304;2022-07-30T02:49:00;23.03;;;16.87;;
15812;SDS011;8007;51.404;6.304;2022-07-30T02:51:03;20.40;;;17.20;;
15812;SDS011;8007;51.404;6.304;2022-07-30T02:53:07;20.47;;;16.67;;
15812;SDS011;8007;51.404;6.304;2022-07-30T02:55:10;23.20;;;17.90;;
15812;SDS011;8007;51.404;6.304;2022-07-30T02:57:13;24.20;;;16.53;;
15812;SDS011;8007;51.404;6.304;2022-07-30T02:59:16;25.37;;;17.40;;
15812;SDS011;8007;51.404;6.304;2022-07-30T03:01:20;20.17;;;16.50;;
15812;SDS011;8007;51.404;6.304;2022-07-30T03:03:23;22.53;;;17.23;;
15812;SDS011;8007;51.404;6.304;2022-07-30T03:05:29;22.47;;;17.17;;
15812;SDS011;8007;51.404;6.304;2022-07-30T03:07:32;24.67;;;17.90;;
15812;SDS011;8007;51.404;6.304;2022-07-30T03:09:35;23.03;;;17.67;;
15812;SDS011;8007;51.404;6.304;2022-07-30T03:11:38;20.97;;;17.77;;
15812;SDS011;8007;51.404;6.304;2022-07-30T03:13:41;28.23;;;18.07;;
15812;SDS011;8007;51.404;6.304;2022-07-30T03:15:45;20.97;;;17.37;;
15812;SDS011;8007;51.404;6.304;2022-07-30T03:17:49;26.30;;;18.30;;
15812;SDS011;8007;51.404;6.304;2022-07-30T03:19:53;23.97;;;18.10;;
15812;SDS011;8007;51.404;6.304;2022-07-30T03:21:57;26.70;;;17.83;;
15812;SDS011;8007;51.404;6.304;2022-07-30T03:24:01;28.50;;;18.00;;
15812;SDS011;8007;51.404;6.304;2022-07-30T03:26:05;26.73;;;18.63;;
15812;SDS011;8007;51.404;6.304;2022-07-30T03:28:09;25.77;;;19.47;;
15812;SDS011;8007;51.404;6.304;2022-07-30T03:30:11;31.10;;;19.53;;
15812;SDS011;8007;51.404;6.304;2022-07-30T03:32:14;26.43;;;20.00;;
15812;SDS011;8007;51.404;6.304;2022-07-30T03:34:17;26.73;;;19.93;;
15812;SDS011;8007;51.404;6.304;2022-07-30T03:36:19;30.73;;;19.97;;
15812;SDS011;8007;51.404;6.304;2022-07-30T03:38:23;28.97;;;20.23;;
15812;SDS011;8007;51.404;6.304;2022-07-30T03:40:26;28.23;;;18.83;;
15812;SDS011;8007;51.404;6.304;2022-07-30T03:42:29;26.27;;;19.67;;
15812;SDS011;8007;51.404;6.304;2022-07-30T03:44:32;32.13;;;21.10;;
15812;SDS011;8007;51.404;6.304;2022-07-30T03:46:35;28.40;;;20.83;;
15812;SDS011;8007;51.404;6.304;2022-07-30T03:48:37;27.90;;;20.87;;
15812;SDS011;8007;51.404;6.304;2022-07-30T03:50:40;28.77;;;20.80;;
15812;SDS011;8007;51.404;6.304;2022-07-30T03:52:43;27.97;;;20.47;;
15812;SDS011;8007;51.404;6.304;2022-07-30T03:54:47;33.50;;;21.30;;
15812;SDS011;8007;51.404;6.304;2022-07-30T03:56:49;34.73;;;22.17;;
15812;SDS011;8007;51.404;6.304;2022-07-30T03:58:51;36.40;;;22.97;;
15812;SDS011;8007;51.404;6.304;2022-07-30T04:00:54;36.47;;;23.40;;
15812;SDS011;8007;51.404;6.304;2022-07-30T04:02:56;39.30;;;23.13;;
15812;SDS011;8007;51.404;6.304;2022-07-30T04:04:59;37.70;;;23.30;;
15812;SDS011;8007;51.404;6.304;2022-07-30T04:07:01;35.20;;;23.20;;
15812;SDS011;8007;51.404;6.304;2022-07-30T04:09:04;36.53;;;23.73;;
15812;SDS011;8007;51.404;6.304;2022-07-30T04:11:08;35.87;;;23.20;;
15812;SDS011;8007;51.404;6.304;2022-07-30T04:13:11;36.00;;;23.37;;
15812;SDS011;8007;51.404;6.304;2022-07-30T04:15:13;36.37;;;23.50;;
15812;SDS011;8007;51.404;6.304;2022-07-30T04:17:17;32.37;;;24.00;;
15812;SDS011;8007;51.404;6.304;2022-07-30T04:19:24;39.03;;;24.60;;
15812;SDS011;8007;51.404;6.304;2022-07-30T04:21:28;39.20;;;23.87;;
15812;SDS011;8007;51.404;6.304;2022-07-30T04:23:33;42.80;;;25.80;;
15812;SDS011;8007;51.404;6.304;2022-07-30T04:25:35;40.17;;;24.40;;
15812;SDS011;8007;51.404;6.304;2022-07-30T04:27:39;42.60;;;26.07;;
15812;SDS011;8007;51.404;6.304;2022-07-30T04:29:42;34.83;;;24.37;;
15812;SDS011;8007;51.404;6.304;2022-07-30T04:31:44;49.10;;;25.90;;
15812;SDS011;8007;51.404;6.304;2022-07-30T04:33:47;34.43;;;24.63;;
15812;SDS011;8007;51.404;6.304;2022-07-30T04:35:49;55.70;;;24.03;;
15812;SDS011;8007;51.404;6.304;2022-07-30T04:37:52;38.90;;;24.43;;
15812;SDS011;8007;51.404;6.304;2022-07-30T04:39:54;50.77;;;24.47;;
15812;SDS011;8007;51.404;6.304;2022-07-30T04:41:57;40.67;;;24.30;;
15812;SDS011;8007;51.404;6.304;2022-07-30T04:44:01;36.73;;;23.97;;
15812;SDS011;8007;51.404;6.304;2022-07-30T04:46:04;40.17;;;25.00;;
15812;SDS011;8007;51.404;6.304;2022-07-30T04:48:06;52.83;;;24.63;;
15812;SDS011;8007;51.404;6.304;2022-07-30T04:50:08;38.67;;;24.90;;
15812;SDS011;8007;51.404;6.304;2022-07-30T04:52:11;37.13;;;24.50;;
15812;SDS011;8007;51.404;6.304;2022-07-30T04:54:14;46.33;;;22.93;;
15812;SDS011;8007;51.404;6.304;2022-07-30T04:56:17;49.20;;;24.17;;
15812;SDS011;8007;51.404;6.304;2022-07-30T04:58:19;37.87;;;24.77;;
15812;SDS011;8007;51.404;6.304;2022-07-30T05:00:24;37.17;;;24.30;;
15812;SDS011;8007;51.404;6.304;2022-07-30T05:02:28;33.93;;;23.67;;
15812;SDS011;8007;51.404;6.304;2022-07-30T05:04:31;37.07;;;25.33;;
15812;SDS011;8007;51.404;6.304;2022-07-30T05:06:33;42.33;;;24.60;;
15812;SDS011;8007;51.404;6.304;2022-07-30T05:08:37;42.13;;;24.90;;
15812;SDS011;8007;51.404;6.304;2022-07-30T05:10:39;34.57;;;23.63;;
15812;SDS011;8007;51.404;6.304;2022-07-30T05:12:43;38.87;;;24.90;;
15812;SDS011;8007;51.404;6.304;2022-07-30T05:14:46;38.73;;;24.33;;
15812;SDS011;8007;51.404;6.304;2022-07-30T05:16:49;37.10;;;24.03;;
15812;SDS011;8007;51.404;6.304;2022-07-30T05:18:52;38.70;;;25.27;;
15812;SDS011;8007;51.404;6.304;2022-07-30T05:20:54;38.20;;;24.43;;
15812;SDS011;8007;51.404;6.304;2022-07-30T05:22:57;38.73;;;24.07;;
15812;SDS011;8007;51.404;6.304;2022-07-30T05:24:59;33.10;;;23.07;;
15812;SDS011;8007;51.404;6.304;2022-07-30T05:27:02;32.30;;;22.10;;
15812;SDS011;8007;51.404;6.304;2022-07-30T05:29:04;36.93;;;22.53;;
15812;SDS011;8007;51.404;6.304;2022-07-30T05:31:07;34.10;;;22.27;;
15812;SDS011;8007;51.404;6.304;2022-07-30T05:33:10;36.07;;;23.33;;
15812;SDS011;8007;51.404;6.304;2022-07-30T05:35:13;30.93;;;22.73;;
15812;SDS011;8007;51.404;6.304;2022-07-30T05:37:15;31.27;;;21.63;;
15812;SDS011;8007;51.404;6.304;2022-07-30T05:39:18;33.70;;;22.47;;
15812;SDS011;8007;51.404;6.304;2022-07-30T05:41:20;34.37;;;22.43;;
15812;SDS011;8007;51.404;6.304;2022-07-30T05:43:22;31.50;;;22.00;;
15812;SDS011;8007;51.404;6.304;2022-07-30T05:45:25;32.93;;;21.83;;
15812;SDS011;8007;51.404;6.304;2022-07-30T05:47:27;34.07;;;21.97;;
15812;SDS011;8007;51.404;6.304;2022-07-30T05:49:31;32.63;;;21.73;;
15812;SDS011;8007;51.404;6.304;2022-07-30T05:51:33;31.50;;;20.77;;
15812;SDS011;8007;51.404;6.304;2022-07-30T05:53:35;32.63;;;21.80;;
15812;SDS011;8007;51.404;6.304;2022-07-30T05:55:38;29.23;;;21.83;;
15812;SDS011;8007;51.404;6.304;2022-07-30T05:57:40;32.40;;;21.40;;
15812;SDS011;8007;51.404;6.304;2022-07-30T05:59:43;31.10;;;20.70;;
15812;SDS011;8007;51.404;6.304;2022-07-30T06:01:46;31.57;;;20.20;;
15812;SDS011;8007;51.404;6.304;2022-07-30T06:03:48;29.83;;;20.20;;
15812;SDS011;8007;51.404;6.304;2022-07-30T06:05:52;30.87;;;20.30;;
15812;SDS011;8007;51.404;6.304;2022-07-30T06:07:54;28.50;;;20.17;;
15812;SDS011;8007;51.404;6.304;2022-07-30T06:09:57;29.83;;;19.23;;
15812;SDS011;8007;51.404;6.304;2022-07-30T06:12:00;25.97;;;19.33;;
15812;SDS011;8007;51.404;6.304;2022-07-30T06:14:03;23.60;;;19.03;;
15812;SDS011;8007;51.404;6.304;2022-07-30T06:16:05;25.23;;;18.00;;
15812;SDS011;8007;51.404;6.304;2022-07-30T06:18:07;26.27;;;18.07;;
15812;SDS011;8007;51.404;6.304;2022-07-30T06:20:10;23.83;;;16.93;;
15812;SDS011;8007;51.404;6.304;2022-07-30T06:22:15;24.10;;;17.00;;
15812;SDS011;8007;51.404;6.304;2022-07-30T06:24:17;22.17;;;16.60;;
15812;SDS011;8007;51.404;6.304;2022-07-30T06:26:19;24.53;;;17.27;;
15812;SDS011;8007;51.404;6.304;2022-07-30T06:28:22;29.93;;;16.80;;
15812;SDS011;8007;51.404;6.304;2022-07-30T06:30:24;25.00;;;15.90;;
15812;SDS011;8007;51.404;6.304;2022-07-30T06:32:28;23.40;;;16.10;;
15812;SDS011;8007;51.404;6.304;2022-07-30T06:34:31;22.43;;;15.37;;
15812;SDS011;8007;51.404;6.304;2022-07-30T06:36:36;21.00;;;14.40;;
15812;SDS011;8007;51.404;6.304;2022-07-30T06:38:40;24.37;;;15.53;;
15812;SDS011;8007;51.404;6.304;2022-07-30T06:40:43;21.80;;;14.97;;
15812;SDS011;8007;51.404;6.304;2022-07-30T06:42:45;20.30;;;15.17;;
15812;SDS011;8007;51.404;6.304;2022-07-30T06:44:47;23.13;;;14.77;;
15812;SDS011;8007;51.404;6.304;2022-07-30T06:46:49;19.37;;;14.93;;
15812;SDS011;8007;51.404;6.304;2022-07-30T06:48:52;19.53;;;13.57;;
15812;SDS011;8007;51.404;6.304;2022-07-30T06:50:54;17.50;;;13.67;;
15812;SDS011;8007;51.404;6.304;2022-07-30T06:52:56;20.67;;;14.73;;
15812;SDS011;8007;51.404;6.304;2022-07-30T06:55:00;22.27;;;14.73;;
15812;SDS011;8007;51.404;6.304;2022-07-30T06:57:03;17.27;;;14.37;;
15812;SDS011;8007;51.404;6.304;2022-07-30T06:59:05;21.07;;;13.80;;
15812;SDS011;8007;51.404;6.304;2022-07-30T07:01:08;19.00;;;13.23;;
15812;SDS011;8007;51.404;6.304;2022-07-30T07:03:10;21.03;;;13.23;;
15812;SDS011;8007;51.404;6.304;2022-07-30T07:05:13;14.63;;;12.93;;
15812;SDS011;8007;51.404;6.304;2022-07-30T07:07:15;14.07;;;11.70;;
15812;SDS011;8007;51.404;6.304;2022-07-30T07:09:17;15.97;;;12.00;;
15812;SDS011;8007;51.404;6.304;2022-07-30T07:11:21;13.60;;;11.53;;
15812;SDS011;8007;51.404;6.304;2022-07-30T07:13:24;14.37;;;11.97;;
15812;SDS011;8007;51.404;6.304;2022-07-30T07:15:26;16.67;;;13.27;;
15812;SDS011;8007;51.404;6.304;2022-07-30T07:17:29;15.37;;;13.47;;
15812;SDS011;8007;51.404;6.304;2022-07-30T07:19:31;15.83;;;12.23;;
15812;SDS011;8007;51.404;6.304;2022-07-30T07:21:34;14.70;;;12.60;;
15812;SDS011;8007;51.404;6.304;2022-07-30T07:23:36;15.57;;;12.57;;
15812;SDS011;8007;51.404;6.304;2022-07-30T07:25:38;15.80;;;12.73;;
15812;SDS011;8007;51.404;6.304;2022-07-30T07:27:42;16.67;;;13.00;;
15812;SDS011;8007;51.404;6.304;2022-07-30T07:29:45;13.80;;;12.32;;
15812;SDS011;8007;51.404;6.304;2022-07-30T07:31:47;14.20;;;12.68;;
15812;SDS011;8007;51.404;6.304;2022-07-30T07:33:49;19.60;;;13.57;;
15812;SDS011;8007;51.404;6.304;2022-07-30T07:35:53;15.27;;;11.68;;
15812;SDS011;8007;51.404;6.304;2022-07-30T07:37:55;16.08;;;12.13;;
15812;SDS011;8007;51.404;6.304;2022-07-30T07:39:58;15.27;;;12.98;;
15812;SDS011;8007;51.404;6.304;2022-07-30T07:42:00;13.45;;;11.75;;
15812;SDS011;8007;51.404;6.304;2022-07-30T07:44:04;14.95;;;12.55;;
15812;SDS011;8007;51.404;6.304;2022-07-30T07:46:07;14.68;;;13.07;;
15812;SDS011;8007;51.404;6.304;2022-07-30T07:48:11;15.18;;;12.38;;
15812;SDS011;8007;51.404;6.304;2022-07-30T07:50:15;13.13;;;10.55;;
15812;SDS011;8007;51.404;6.304;2022-07-30T07:52:18;14.82;;;12.90;;
15812;SDS011;8007;51.404;6.304;2022-07-30T07:54:21;12.18;;;10.98;;
15812;SDS011;8007;51.404;6.304;2022-07-30T07:56:23;15.15;;;11.90;;
15812;SDS011;8007;51.404;6.304;2022-07-30T07:58:26;14.27;;;12.07;;
15812;SDS011;8007;51.404;6.304;2022-07-30T08:00:30;14.80;;;12.60;;
15812;SDS011;8007;51.404;6.304;2022-07-30T08:02:33;12.40;;;10.77;;
15812;SDS011;8007;51.404;6.304;2022-07-30T08:04:35;12.23;;;10.10;;
15812;SDS011;8007;51.404;6.304;2022-07-30T08:06:37;10.82;;;9.73;;
15812;SDS011;8007;51.404;6.304;2022-07-30T08:08:40;14.27;;;11.82;;
15812;SDS011;8007;51.404;6.304;2022-07-30T08:10:42;12.75;;;11.25;;
15812;SDS011;8007;51.404;6.304;2022-07-30T08:12:45;12.65;;;11.20;;
15812;SDS011;8007;51.404;6.304;2022-07-30T08:14:47;10.68;;;9.23;;
15812;SDS011;8007;51.404;6.304;2022-07-30T08:16:51;12.27;;;10.93;;
15812;SDS011;8007;51.404;6.304;2022-07-30T08:18:54;12.55;;;11.32;;
15812;SDS011;8007;51.404;6.304;2022-07-30T08:20:56;11.10;;;10.02;;
15812;SDS011;8007;51.404;6.304;2022-07-30T08:22:59;11.45;;;10.02;;
15812;SDS011;8007;51.404;6.304;2022-07-30T08:25:01;8.98;;;8.18;;
15812;SDS011;8007;51.404;6.304;2022-07-30T08:27:04;11.98;;;10.00;;
15812;SDS011;8007;51.404;6.304;2022-07-30T08:29:07;11.27;;;9.82;;
15812;SDS011;8007;51.404;6.304;2022-07-30T08:31:11;10.18;;;8.65;;
15812;SDS011;8007;51.404;6.304;2022-07-30T08:33:15;10.73;;;8.90;;
15812;SDS011;8007;51.404;6.304;2022-07-30T08:35:18;9.68;;;8.77;;
15812;SDS011;8007;51.404;6.304;2022-07-30T08:37:20;12.43;;;8.30;;
15812;SDS011;8007;51.404;6.304;2022-07-30T08:39:22;9.35;;;8.45;;
15812;SDS011;8007;51.404;6.304;2022-07-30T08:41:25;10.23;;;9.23;;
15812;SDS011;8007;51.404;6.304;2022-07-30T08:43:28;9.40;;;8.30;;
15812;SDS011;8007;51.404;6.304;2022-07-30T08:45:30;10.35;;;9.27;;
15812;SDS011;8007;51.404;6.304;2022-07-30T08:47:34;9.93;;;9.02;;
15812;SDS011;8007;51.404;6.304;2022-07-30T08:49:38;9.85;;;7.80;;
15812;SDS011;8007;51.404;6.304;2022-07-30T08:51:41;8.73;;;7.30;;
15812;SDS011;8007;51.404;6.304;2022-07-30T08:53:43;8.93;;;7.40;;
15812;SDS011;8007;51.404;6.304;2022-07-30T08:55:46;8.70;;;7.97;;
15812;SDS011;8007;51.404;6.304;2022-07-30T08:57:49;8.93;;;7.50;;
15812;SDS011;8007;51.404;6.304;2022-07-30T08:59:51;8.75;;;7.30;;
15812;SDS011;8007;51.404;6.304;2022-07-30T09:01:54;9.88;;;7.30;;
15812;SDS011;8007;51.404;6.304;2022-07-30T09:03:56;8.77;;;8.00;;
15812;SDS011;8007;51.404;6.304;2022-07-30T09:06:01;10.63;;;9.50;;
15812;SDS011;8007;51.404;6.304;2022-07-30T09:08:04;9.55;;;8.00;;
15812;SDS011;8007;51.404;6.304;2022-07-30T09:10:07;9.98;;;8.63;;
15812;SDS011;8007;51.404;6.304;2022-07-30T09:14:34;7.78;;;7.00;;
15812;SDS011;8007;51.404;6.304;2022-07-30T09:16:37;9.10;;;8.25;;
15812;SDS011;8007;51.404;6.304;2022-07-30T09:18:40;9.48;;;7.45;;
15812;SDS011;8007;51.404;6.304;2022-07-30T09:20:43;9.70;;;8.55;;
15812;SDS011;8007;51.404;6.304;2022-07-30T09:22:47;8.98;;;8.07;;
15812;SDS011;8007;51.404;6.304;2022-07-30T09:24:51;8.73;;;7.93;;
15812;SDS011;8007;51.404;6.304;2022-07-30T09:26:55;8.75;;;7.85;;
15812;SDS011;8007;51.404;6.304;2022-07-30T09:29:13;8.18;;;7.22;;
15812;SDS011;8007;51.404;6.304;2022-07-30T09:31:18;9.38;;;8.10;;
15812;SDS011;8007;51.404;6.304;2022-07-30T09:33:29;9.77;;;7.03;;
15812;SDS011;8007;51.404;6.304;2022-07-30T09:35:34;9.35;;;7.05;;
15812;SDS011;8007;51.404;6.304;2022-07-30T09:37:36;8.20;;;7.18;;
15812;SDS011;8007;51.404;6.304;2022-07-30T09:39:40;9.98;;;7.03;;
15812;SDS011;8007;51.404;6.304;2022-07-30T09:41:43;9.80;;;8.80;;
15812;SDS011;8007;51.404;6.304;2022-07-30T09:43:46;7.55;;;6.75;;
15812;SDS011;8007;51.404;6.304;2022-07-30T09:45:49;7.03;;;5.97;;
15812;SDS011;8007;51.404;6.304;2022-07-30T09:47:53;7.57;;;6.88;;
15812;SDS011;8007;51.404;6.304;2022-07-30T09:50:00;6.68;;;5.60;;
15812;SDS011;8007;51.404;6.304;2022-07-30T09:52:04;8.18;;;7.47;;
15812;SDS011;8007;51.404;6.304;2022-07-30T09:54:07;7.82;;;7.13;;
15812;SDS011;8007;51.404;6.304;2022-07-30T09:56:23;10.57;;;9.23;;
15812;SDS011;8007;51.404;6.304;2022-07-30T10:00:43;11.02;;;7.25;;
15812;SDS011;8007;51.404;6.304;2022-07-30T10:02:46;8.57;;;7.70;;
15812;SDS011;8007;51.404;6.304;2022-07-30T10:04:50;6.68;;;6.07;;
15812;SDS011;8007;51.404;6.304;2022-07-30T10:06:53;5.72;;;4.47;;
15812;SDS011;8007;51.404;6.304;2022-07-30T10:08:55;5.57;;;5.07;;
15812;SDS011;8007;51.404;6.304;2022-07-30T10:10:58;5.80;;;5.30;;
15812;SDS011;8007;51.404;6.304;2022-07-30T10:13:02;7.10;;;5.13;;
15812;SDS011;8007;51.404;6.304;2022-07-30T10:15:08;7.00;;;5.22;;
15812;SDS011;8007;51.404;6.304;2022-07-30T10:17:12;5.38;;;4.97;;
15812;SDS011;8007;51.404;6.304;2022-07-30T10:19:18;7.22;;;4.85;;
15812;SDS011;8007;51.404;6.304;2022-07-30T10:21:21;5.03;;;4.63;;
15812;SDS011;8007;51.404;6.304;2022-07-30T10:23:23;5.72;;;4.63;;
15812;SDS011;8007;51.404;6.304;2022-07-30T10:25:28;6.45;;;4.85;;
15812;SDS011;8007;51.404;6.304;2022-07-30T10:27:31;5.15;;;4.65;;
15812;SDS011;8007;51.404;6.304;2022-07-30T10:29:36;6.90;;;4.05;;
15812;SDS011;8007;51.404;6.304;2022-07-30T10:31:38;4.22;;;3.83;;
15812;SDS011;8007;51.404;6.304;2022-07-30T10:33:41;6.72;;;4.90;;
15812;SDS011;8007;51.404;6.304;2022-07-30T10:35:43;6.25;;;3.80;;
15812;SDS011;8007;51.404;6.304;2022-07-30T10:37:47;4.53;;;3.95;;
15812;SDS011;8007;51.404;6.304;2022-07-30T10:39:51;7.35;;;4.90;;
15812;SDS011;8007;51.404;6.304;2022-07-30T10:41:57;3.90;;;3.55;;
15812;SDS011;8007;51.404;6.304;2022-07-30T10:44:09;4.20;;;3.65;;
15812;SDS011;8007;51.404;6.304;2022-07-30T10:46:32;3.63;;;3.40;;
15812;SDS011;8007;51.404;6.304;2022-07-30T10:48:39;5.43;;;3.60;;
15812;SDS011;8007;51.404;6.304;2022-07-30T10:50:49;5.05;;;3.63;;
15812;SDS011;8007;51.404;6.304;2022-07-30T10:52:53;5.32;;;3.22;;
15812;SDS011;8007;51.404;6.304;2022-07-30T10:54:57;3.95;;;3.65;;
15812;SDS011;8007;51.404;6.304;2022-07-30T10:57:02;5.35;;;3.40;;
15812;SDS011;8007;51.404;6.304;2022-07-30T10:59:05;3.33;;;2.47;;
15812;SDS011;8007;51.404;6.304;2022-07-30T11:01:09;4.63;;;2.53;;
15812;SDS011;8007;51.404;6.304;2022-07-30T11:03:16;4.75;;;2.83;;
15812;SDS011;8007;51.404;6.304;2022-07-30T11:05:23;2.97;;;2.55;;
15812;SDS011;8007;51.404;6.304;2022-07-30T11:07:28;3.47;;;2.53;;
15812;SDS011;8007;51.404;6.304;2022-07-30T11:09:35;5.00;;;2.78;;
15812;SDS011;8007;51.404;6.304;2022-07-30T11:11:41;3.40;;;2.38;;
15812;SDS011;8007;51.404;6.304;2022-07-30T11:13:49;3.00;;;2.20;;
15812;SDS011;8007;51.404;6.304;2022-07-30T11:15:53;2.88;;;2.13;;
15812;SDS011;8007;51.404;6.304;2022-07-30T11:18:01;3.33;;;2.50;;
15812;SDS011;8007;51.404;6.304;2022-07-30T11:20:14;4.63;;;2.85;;
15812;SDS011;8007;51.404;6.304;2022-07-30T11:22:24;3.03;;;2.55;;
15812;SDS011;8007;51.404;6.304;2022-07-30T11:24:43;3.25;;;2.33;;
15812;SDS011;8007;51.404;6.304;2022-07-30T11:26:49;2.65;;;2.45;;
15812;SDS011;8007;51.404;6.304;2022-07-30T11:28:52;4.82;;;2.70;;
15812;SDS011;8007;51.404;6.304;2022-07-30T11:30:54;3.40;;;3.10;;
15812;SDS011;8007;51.404;6.304;2022-07-30T11:33:19;4.65;;;2.70;;
15812;SDS011;8007;51.404;6.304;2022-07-30T11:35:26;4.88;;;2.88;;
15812;SDS011;8007;51.404;6.304;2022-07-30T11:37:29;4.43;;;2.20;;
15812;SDS011;8007;51.404;6.304;2022-07-30T11:42:25;4.07;;;2.53;;
15812;SDS011;8007;51.404;6.304;2022-07-30T11:44:31;3.40;;;3.10;;
15812;SDS011;8007;51.404;6.304;2022-07-30T11:46:34;4.63;;;2.30;;
15812;SDS011;8007;51.404;6.304;2022-07-30T11:48:37;5.15;;;2.70;;
15812;SDS011;8007;51.404;6.304;2022-07-30T11:50:42;3.20;;;2.38;;
15812;SDS011;8007;51.404;6.304;2022-07-30T11:52:47;3.85;;;3.00;;
15812;SDS011;8007;51.404;6.304;2022-07-30T11:54:50;4.80;;;3.35;;
15812;SDS011;8007;51.404;6.304;2022-07-30T11:56:54;3.38;;;2.83;;
15812;SDS011;8007;51.404;6.304;2022-07-30T11:59:00;3.30;;;2.45;;
15812;SDS011;8007;51.404;6.304;2022-07-30T12:01:04;2.30;;;2.20;;
15812;SDS011;8007;51.404;6.304;2022-07-30T12:03:13;3.20;;;2.50;;
15812;SDS011;8007;51.404;6.304;2022-07-30T12:05:21;3.08;;;2.50;;
15812;SDS011;8007;51.404;6.304;2022-07-30T12:07:26;3.42;;;2.10;;
15812;SDS011;8007;51.404;6.304;2022-07-30T12:09:29;3.17;;;2.30;;
15812;SDS011;8007;51.404;6.304;2022-07-30T12:11:31;3.53;;;2.13;;
15812;SDS011;8007;51.404;6.304;2022-07-30T12:13:34;2.90;;;2.60;;
15812;SDS011;8007;51.404;6.304;2022-07-30T12:15:38;5.57;;;2.05;;
15812;SDS011;8007;51.404;6.304;2022-07-30T12:17:42;3.03;;;2.72;;
15812;SDS011;8007;51.404;6.304;2022-07-30T12:19:45;3.42;;;2.80;;
15812;SDS011;8007;51.404;6.304;2022-07-30T12:21:48;3.13;;;2.42;;
15812;SDS011;8007;51.404;6.304;2022-07-30T12:23:55;2.30;;;2.10;;
15812;SDS011;8007;51.404;6.304;2022-07-30T12:25:58;5.10;;;2.33;;
15812;SDS011;8007;51.404;6.304;2022-07-30T12:28:01;5.60;;;2.47;;
15812;SDS011;8007;51.404;6.304;2022-07-30T12:30:03;3.25;;;2.38;;